Time;durP1;ratioP1;P1;durP2;ratioP2;P2;SDS_P1;SDS_P2;PMS_P1;PMS_P2;Temp;Humidity;BMP_temperature;BMP_pressure;BME280_temperature;BME280_humidity;BME280_pressure;Samples;Min_cycle;Max_cycle;Signal;HPM_P1;HPM_P2
2021/06/14 00:00:27;;;;;;;8.57;5.53;;;;;;;21.51;57.70;99191.56;3494654;28;20079;-71
2021/06/14 00:02:08;;;;;;;5.93;5.33;;;;;;;21.50;57.73;99198.91;3496422;28;20525;-70
2021/06/14 00:03:49;;;;;;;10.10;5.17;;;;;;;21.47;57.89;99195.91;3496096;28;20036;-70
2021/06/14 00:05:38;;;;;;;7.57;4.57;;;;;;;21.49;57.82;99201.88;3496856;28;20415;-72
2021/06/14 00:07:23;;;;;;;9.80;5.88;;;;;;;21.46;57.94;99194.31;3496031;28;20469;-72
2021/06/14 00:09:05;;;;;;;8.95;5.55;;;;;;;21.43;58.01;99203.81;3496191;28;20044;-70
2021/06/14 00:10:48;;;;;;;11.05;5.68;;;;;;;21.39;58.07;99199.22;3486711;28;20045;-71
2021/06/14 00:12:28;;;;;;;6.35;4.70;;;;;;;21.41;58.02;99202.47;3482489;28;20052;-71
2021/06/14 00:14:09;;;;;;;7.83;5.07;;;;;;;21.39;58.02;99204.63;3482000;28;20044;-70
2021/06/14 00:15:51;;;;;;;8.47;5.03;;;;;;;21.36;57.86;99205.97;3482695;28;20044;-71
2021/06/14 00:17:32;;;;;;;10.00;5.18;;;;;;;21.35;58.12;99209.78;3481610;28;20076;-69
2021/06/14 00:19:13;;;;;;;11.85;5.13;;;;;;;21.32;58.13;99205.72;3478710;28;20045;-70
2021/06/14 00:20:57;;;;;;;10.15;4.68;;;;;;;21.29;58.34;99210.88;3491366;28;20146;-70
2021/06/14 00:22:39;;;;;;;8.35;4.47;;;;;;;21.27;58.22;99207.63;3495681;28;20029;-70
2021/06/14 00:24:20;;;;;;;10.52;5.47;;;;;;;21.23;58.13;99215.50;3496020;28;20044;-70
2021/06/14 00:26:03;;;;;;;9.87;4.70;;;;;;;21.25;58.13;99223.38;3496274;28;20052;-68
2021/06/14 00:27:44;;;;;;;7.22;4.53;;;;;;;21.23;58.02;99211.97;3482468;28;20041;-70
2021/06/14 00:29:24;;;;;;;6.80;4.23;;;;;;;21.22;58.36;99219.31;3482293;28;20526;-71
2021/06/14 00:31:05;;;;;;;6.77;4.37;;;;;;;21.22;58.36;99222.03;3481928;28;20415;-70
2021/06/14 00:32:47;;;;;;;6.63;4.60;;;;;;;21.21;58.47;99228.50;3495003;28;20048;-70
2021/06/14 00:34:28;;;;;;;8.02;4.28;;;;;;;21.23;58.35;99237.19;3484983;28;20407;-69
2021/06/14 00:36:10;;;;;;;11.05;4.65;;;;;;;21.19;58.18;99233.38;3482126;28;20099;-69
2021/06/14 00:37:52;;;;;;;11.10;4.57;;;;;;;21.22;58.46;99249.13;3494883;28;20186;-69
2021/06/14 00:39:33;;;;;;;10.50;4.28;;;;;;;21.20;58.58;99245.06;3496034;28;20051;-70
2021/06/14 00:41:14;;;;;;;10.07;4.70;;;;;;;21.18;58.54;99242.63;3496383;28;20076;-69
2021/06/14 00:42:58;;;;;;;7.90;4.53;;;;;;;21.18;58.34;99248.03;3507985;28;20040;-69
2021/06/14 00:44:40;;;;;;;5.13;3.80;;;;;;;21.18;58.35;99248.03;3487531;28;20419;-70
2021/06/14 00:46:21;;;;;;;5.70;4.30;;;;;;;21.18;58.44;99241.81;3481316;28;20641;-71
2021/06/14 00:48:04;;;;;;;11.03;4.33;;;;;;;21.17;58.51;99246.44;3481958;28;20044;-71
2021/06/14 00:49:46;;;;;;;6.10;4.00;;;;;;;21.16;58.52;99252.91;3480862;28;20041;-69
2021/06/14 00:51:27;;;;;;;4.33;3.87;;;;;;;21.14;58.40;99249.66;3482178;28;20047;-70
2021/06/14 00:53:11;;;;;;;10.20;4.03;;;;;;;21.13;58.27;99256.97;3483126;28;20399;-73
2021/06/14 00:54:52;;;;;;;14.80;4.43;;;;;;;21.10;58.28;99245.91;3485157;28;20036;-71
2021/06/14 00:56:33;;;;;;;12.17;5.03;;;;;;;21.10;58.40;99244.00;3494586;28;20090;-70
2021/06/14 00:58:15;;;;;;;12.73;4.85;;;;;;;21.09;58.90;99246.97;3495996;28;20103;-73
2021/06/14 00:59:57;;;;;;;7.80;3.88;;;;;;;21.08;59.08;99250.78;3495890;28;20045;-70
2021/06/14 01:01:39;;;;;;;13.73;4.75;;;;;;;21.05;59.01;99249.41;3481137;28;20454;-72
2021/06/14 01:03:21;;;;;;;6.80;4.40;;;;;;;21.06;59.09;99259.16;3489901;28;20055;-73
2021/06/14 01:05:06;;;;;;;6.05;4.00;;;;;;;21.04;58.90;99258.66;3490021;28;20541;-71
2021/06/14 01:06:49;;;;;;;11.23;4.13;;;;;;;21.02;58.92;99255.41;3482012;28;20106;-70
2021/06/14 01:08:34;;;;;;;8.27;4.35;;;;;;;21.02;59.05;99249.16;3481647;28;20400;-73
2021/06/14 01:10:15;;;;;;;6.88;4.50;;;;;;;20.99;59.19;99252.41;3481297;28;20041;-70
2021/06/14 01:12:07;;;;;;;7.85;4.55;;;;;;;21.00;59.09;99254.03;3486852;28;20048;-72
2021/06/14 01:14:02;;;;;;;9.60;4.70;;;;;;;21.01;59.13;99247.53;3495124;28;20076;-71
2021/06/14 01:15:56;;;;;;;7.30;4.88;;;;;;;20.98;59.24;99254.31;3492159;28;20668;-72
2021/06/14 01:17:42;;;;;;;7.05;4.70;;;;;;;20.97;59.13;99255.41;3495194;28;20044;-72
2021/06/14 01:19:54;;;;;;;10.43;4.78;;;;;;;20.98;59.52;99250.78;3494930;28;20521;-71
2021/06/14 01:21:42;;;;;;;8.18;4.80;;;;;;;20.95;59.42;99257.56;3492479;28;20049;-72
2021/06/14 01:23:43;;;;;;;11.10;4.90;;;;;;;20.97;59.29;99251.88;3479929;28;20045;-72
2021/06/14 01:25:41;;;;;;;9.50;4.53;;;;;;;20.96;59.28;99256.50;3495878;28;20044;-70
2021/06/14 01:27:33;;;;;;;6.55;4.18;;;;;;;20.97;59.17;99252.69;3485307;28;20044;-70
2021/06/14 01:29:17;;;;;;;5.93;3.88;;;;;;;20.97;59.18;99251.88;3479311;28;20415;-70
2021/06/14 01:30:58;;;;;;;15.55;3.90;;;;;;;20.98;59.17;99256.22;3464757;28;20443;-70
2021/06/14 01:32:40;;;;;;;5.38;3.17;;;;;;;21.01;59.14;99255.66;3478990;28;20053;-70
2021/06/14 01:34:24;;;;;;;3.88;3.47;;;;;;;21.01;59.28;99251.03;3478438;28;20669;-71
2021/06/14 01:36:26;;;;;;;6.38;4.05;;;;;;;21.05;59.32;99249.41;3480440;28;20068;-71
2021/06/14 01:38:08;;;;;;;11.50;4.28;;;;;;;21.03;59.15;99248.06;3483143;28;20040;-70
2021/06/14 01:39:50;;;;;;;5.93;4.00;;;;;;;21.05;59.18;99244.00;3484402;28;20047;-70
2021/06/14 01:41:32;;;;;;;;;;;;;;;21.12;59.09;99247.25;3472111;28;20041;-71
2021/06/14 01:43:24;;;;;;;6.32;3.95;;;;;;;21.12;59.46;99247.25;3467167;28;20060;-70
2021/06/14 01:45:06;;;;;;;4.93;3.65;;;;;;;21.13;59.08;99248.84;3492794;28;20511;-72
2021/06/14 01:46:48;;;;;;;;;;;;;;;21.20;59.09;99254.00;3497555;28;20048;-70
2021/06/14 01:48:29;;;;;;;6.20;4.05;;;;;;;21.15;58.86;99254.00;3498016;28;20295;-72
2021/06/14 01:50:10;;;;;;;9.93;5.00;;;;;;;21.17;59.08;99246.44;3496954;28;20059;-71
2021/06/14 01:51:52;;;;;;;8.98;4.82;;;;;;;21.18;59.08;99256.16;3490717;28;20141;-72
2021/06/14 01:53:37;;;;;;;11.45;4.55;;;;;;;21.20;59.09;99256.72;3497189;28;20562;-70
2021/06/14 01:55:20;;;;;;;5.95;3.95;;;;;;;21.22;59.27;99259.13;3483322;28;20040;-70
2021/06/14 01:57:08;;;;;;;5.05;3.70;;;;;;;21.23;59.12;99256.16;3494773;28;20457;-70
2021/06/14 01:59:25;;;;;;;4.45;3.63;;;;;;;21.25;59.19;99259.41;3493165;28;20044;-71
2021/06/14 02:01:08;;;;;;;4.90;4.05;;;;;;;21.25;58.93;99258.59;3496737;28;20106;-70
2021/06/14 02:02:59;;;;;;;5.70;3.10;;;;;;;21.26;59.28;99261.03;3481005;28;20423;-71
2021/06/14 02:05:00;;;;;;;6.15;3.92;;;;;;;21.27;59.15;99278.94;3483159;28;20049;-70
2021/06/14 02:06:48;;;;;;;6.05;4.03;;;;;;;21.29;59.39;99282.16;3484347;28;20048;-68
2021/06/14 02:08:33;;;;;;;3.97;3.58;;;;;;;21.30;59.37;99280.28;3482974;28;20043;-71
2021/06/14 02:10:15;;;;;;;3.38;3.08;;;;;;;21.32;58.95;99276.19;3484519;28;20051;-71
2021/06/14 02:12:02;;;;;;;5.53;3.78;;;;;;;21.35;59.30;99286.50;3469827;28;20456;-70
2021/06/14 02:13:44;;;;;;;6.20;3.80;;;;;;;21.38;59.22;99289.75;3469813;28;20045;-72
2021/06/14 02:15:26;;;;;;;6.53;3.90;;;;;;;21.40;59.10;99287.56;3483075;28;20045;-70
2021/06/14 02:17:09;;;;;;;4.57;3.57;;;;;;;21.42;58.89;99294.34;3455742;28;20605;-70
2021/06/14 02:18:52;;;;;;;6.43;4.13;;;;;;;21.44;58.81;99294.09;3467349;28;20045;-71
2021/06/14 02:20:33;;;;;;;5.73;3.80;;;;;;;21.48;58.83;99295.16;3480433;28;20120;-73
2021/06/14 02:22:15;;;;;;;4.40;4.00;;;;;;;21.50;58.42;99296.50;3469702;28;20049;-71
2021/06/14 02:23:56;;;;;;;8.27;3.80;;;;;;;21.52;58.34;99302.44;3469981;28;20037;-71
2021/06/14 02:25:36;;;;;;;7.50;3.87;;;;;;;21.54;58.55;99300.28;3469269;28;20048;-70
2021/06/14 02:27:17;;;;;;;3.63;3.30;;;;;;;21.58;58.62;99300.53;3474422;28;20053;-70
2021/06/14 02:28:59;;;;;;;4.72;3.13;;;;;;;21.58;58.47;99299.72;3479980;28;20612;-70
2021/06/14 02:30:40;;;;;;;5.83;3.73;;;;;;;21.63;58.68;99314.06;3469118;28;20072;-71
2021/06/14 02:32:21;;;;;;;4.53;3.25;;;;;;;21.65;58.59;99311.91;3466390;28;20049;-72
2021/06/14 02:34:05;;;;;;;4.82;3.90;;;;;;;21.66;58.64;99318.97;3466071;28;20046;-72
2021/06/14 02:35:49;;;;;;;5.30;3.65;;;;;;;21.69;58.53;99318.41;3470773;28;20056;-71
2021/06/14 02:37:30;;;;;;;3.97;3.20;;;;;;;21.69;58.20;99328.44;3470112;28;20408;-73
2021/06/14 02:39:14;;;;;;;8.52;4.40;;;;;;;21.69;58.46;99323.84;3482899;28;20080;-71
2021/06/14 02:40:56;;;;;;;4.60;2.97;;;;;;;21.69;58.10;99329.25;3468991;28;20041;-73
2021/06/14 02:42:37;;;;;;;5.25;4.22;;;;;;;21.70;58.32;99328.16;3466544;28;20415;-71
2021/06/14 02:44:21;;;;;;;4.25;3.53;;;;;;;21.70;58.48;99328.16;3466049;28;20068;-71
2021/06/14 02:46:07;;;;;;;6.63;4.35;;;;;;;21.75;58.40;99339.00;3468557;28;20500;-71
2021/06/14 02:47:49;;;;;;;3.67;3.20;;;;;;;21.77;58.34;99334.09;3471814;28;20063;-70
2021/06/14 02:49:31;;;;;;;3.60;3.28;;;;;;;21.82;58.23;99338.72;3482605;28;20180;-70
2021/06/14 02:51:12;;;;;;;;;;;;;;;21.89;58.22;99344.66;3466526;28;20467;-70
2021/06/14 02:52:55;;;;;;;4.82;3.78;;;;;;;21.84;57.84;99333.81;3466399;28;19925;-71
2021/06/14 02:54:41;;;;;;;5.55;2.67;;;;;;;21.86;58.09;99337.03;3465852;28;20048;-71
2021/06/14 02:56:22;;;;;;;4.88;3.53;;;;;;;21.84;58.14;99336.53;3453740;28;20179;-70
2021/06/14 02:58:06;;;;;;;5.37;3.80;;;;;;;21.87;57.71;99341.41;3463726;28;20041;-71
2021/06/14 02:59:50;;;;;;;7.13;3.83;;;;;;;21.87;57.99;99343.31;3480718;28;20040;-69
2021/06/14 03:01:34;;;;;;;7.72;4.00;;;;;;;21.89;57.93;99343.81;3468740;28;20037;-70
2021/06/14 03:03:14;;;;;;;;;;;;;;;21.95;57.67;99350.88;3453849;28;20042;-70
2021/06/14 03:04:56;;;;;;;5.28;3.08;;;;;;;21.91;57.80;99353.31;3466727;28;20003;-71
2021/06/14 03:06:37;;;;;;;4.93;3.67;;;;;;;21.92;57.97;99357.66;3465854;28;20052;-71
2021/06/14 03:08:18;;;;;;;7.13;4.10;;;;;;;21.93;57.62;99358.47;3488983;28;20525;-70
2021/06/14 03:10:00;;;;;;;7.00;4.03;;;;;;;21.93;57.92;99355.75;3465621;28;20699;-71
2021/06/14 03:11:43;;;;;;;9.52;4.20;;;;;;;21.94;57.55;99357.38;3470634;28;20113;-72
2021/06/14 03:13:29;;;;;;;5.75;3.92;;;;;;;21.95;57.73;99361.72;3469808;28;20053;-70
2021/06/14 03:15:10;;;;;;;4.38;3.35;;;;;;;21.95;57.75;99356.28;3468819;28;20087;-70
2021/06/14 03:16:52;;;;;;;4.43;3.63;;;;;;;21.98;57.83;99361.16;3469804;28;20044;-71
2021/06/14 03:18:33;;;;;;;5.47;4.03;;;;;;;22.00;57.76;99367.94;3479835;28;20470;-72
2021/06/14 03:20:15;;;;;;;6.82;3.78;;;;;;;22.03;57.73;99368.47;3481876;28;20183;-71
2021/06/14 03:21:56;;;;;;;6.78;3.70;;;;;;;22.07;57.75;99364.09;3483003;28;20102;-72
2021/06/14 03:23:43;;;;;;;4.13;3.25;;;;;;;22.07;57.78;99364.94;3468046;28;20049;-72
2021/06/14 03:25:24;;;;;;;5.20;3.70;;;;;;;22.13;57.94;99371.16;3466639;28;20128;-71
2021/06/14 03:27:06;;;;;;;7.47;4.05;;;;;;;22.14;57.82;99368.13;3467610;28;20045;-72
2021/06/14 03:28:48;;;;;;;5.95;3.67;;;;;;;22.17;57.75;99378.44;3473487;28;20041;-70
2021/06/14 03:30:30;;;;;;;5.13;3.33;;;;;;;22.18;57.56;99373.84;3482152;28;20051;-72
2021/06/14 03:32:11;;;;;;;9.50;5.68;;;;;;;22.20;57.74;99377.94;3479136;28;20872;-71
2021/06/14 03:33:52;;;;;;;6.67;3.97;;;;;;;22.23;57.75;99378.44;3466098;28;20041;-72
2021/06/14 03:35:34;;;;;;;5.83;3.57;;;;;;;22.27;57.57;99387.66;3468777;28;20295;-72
2021/06/14 03:37:14;;;;;;;5.32;3.33;;;;;;;22.28;57.32;99384.69;3476162;28;20041;-70
2021/06/14 03:38:55;;;;;;;7.17;2.93;;;;;;;22.30;57.43;99382.47;3482072;28;20068;-71
2021/06/14 03:40:36;;;;;;;6.13;3.33;;;;;;;22.33;57.05;99391.97;3465406;28;20049;-72
2021/06/14 03:42:18;;;;;;;3.17;2.77;;;;;;;22.34;57.20;99388.97;3475510;28;20044;-72
2021/06/14 03:44:03;;;;;;;3.03;2.72;;;;;;;22.40;57.31;99389.75;3478598;28;20041;-71
2021/06/14 03:45:45;;;;;;;3.67;3.35;;;;;;;22.45;57.20;99394.34;3469123;28;20570;-74
2021/06/14 03:47:25;;;;;;;;;;;;;;;22.51;56.94;99388.63;3469339;28;20056;-71
2021/06/14 03:49:06;;;;;;;4.20;3.17;;;;;;;22.46;56.86;99379.69;3468974;28;19935;-71
2021/06/14 03:50:50;;;;;;;3.93;3.53;;;;;;;22.50;56.96;99391.63;3469897;28;20599;-72
2021/06/14 03:52:30;;;;;;;3.80;3.30;;;;;;;22.49;56.98;99396.25;3475182;28;20044;-70
2021/06/14 03:54:11;;;;;;;6.67;3.60;;;;;;;22.52;56.70;99392.97;3469291;28;20068;-71
2021/06/14 03:55:52;;;;;;;3.40;3.10;;;;;;;22.56;57.01;99396.75;3468446;28;20412;-72
2021/06/14 03:57:32;;;;;;;5.83;3.20;;;;;;;22.60;57.03;99392.34;3468576;28;20500;-74
2021/06/14 03:59:13;;;;;;;8.37;3.70;;;;;;;22.64;56.90;99393.44;3473215;28;20090;-71
2021/06/14 04:00:54;;;;;;;3.10;2.90;;;;;;;22.68;56.66;99395.56;3482602;28;20062;-71
2021/06/14 04:02:35;;;;;;;3.13;2.83;;;;;;;22.71;56.70;99397.72;3488312;28;20072;-73
2021/06/14 04:06:10;;;;;;;4.18;3.10;;;;;;;22.76;56.47;99403.13;3480604;28;20049;-72
2021/06/14 04:07:55;;;;;;;6.97;3.25;;;;;;;22.82;56.31;99410.13;3470810;28;20518;-70
2021/06/14 04:09:36;;;;;;;2.70;2.50;;;;;;;22.84;56.27;99397.09;3468712;28;20052;-71
2021/06/14 04:11:17;;;;;;;6.10;3.05;;;;;;;22.88;56.33;99409.03;3477025;28;20541;-71
2021/06/14 04:12:58;;;;;;;5.45;3.20;;;;;;;22.90;56.25;99406.84;3469848;28;20477;-71
2021/06/14 04:14:41;;;;;;;4.10;3.03;;;;;;;22.94;56.08;99410.59;3471805;28;20044;-71
2021/06/14 04:16:22;;;;;;;5.07;2.83;;;;;;;22.97;55.83;99407.34;3480718;28;20048;-71
2021/06/14 04:18:03;;;;;;;5.30;3.10;;;;;;;23.01;55.92;99408.41;3481342;28;20102;-72
2021/06/14 04:19:44;;;;;;;6.45;3.25;;;;;;;23.05;55.81;99412.19;3481775;28;20186;-72
2021/06/14 04:21:25;;;;;;;6.03;3.47;;;;;;;23.07;55.54;99410.00;3482705;28;20446;-73
2021/06/14 04:23:06;;;;;;;4.97;3.50;;;;;;;23.10;55.38;99405.09;3479576;28;20047;-73
2021/06/14 04:24:47;;;;;;;4.77;3.10;;;;;;;23.11;55.28;99406.72;3468591;28;20087;-73
2021/06/14 04:26:28;;;;;;;5.75;2.63;;;;;;;23.16;55.60;99406.69;3468518;28;20029;-70
2021/06/14 04:28:09;;;;;;;4.17;2.67;;;;;;;23.21;55.61;99406.63;3468499;28;20136;-72
2021/06/14 04:29:49;;;;;;;3.40;3.00;;;;;;;23.24;55.49;99412.31;3468798;28;20099;-71
2021/06/14 04:31:31;;;;;;;3.93;3.43;;;;;;;23.28;55.29;99410.66;3467423;28;20474;-72
2021/06/14 04:33:11;;;;;;;4.88;3.40;;;;;;;23.30;55.33;99411.16;3468133;28;20095;-73
2021/06/14 04:34:54;;;;;;;5.50;3.67;;;;;;;23.34;55.03;99410.59;3480935;28;20144;-71
2021/06/14 04:36:35;;;;;;;4.13;3.28;;;;;;;23.37;54.93;99416.28;3481690;28;20040;-71
2021/06/14 04:38:16;;;;;;;2.72;2.53;;;;;;;23.42;54.94;99418.94;3482166;28;20040;-71
2021/06/14 04:39:57;;;;;;;6.73;3.23;;;;;;;23.46;54.82;99419.97;3482520;28;20098;-71
2021/06/14 04:41:38;;;;;;;4.93;2.92;;;;;;;23.49;54.65;99424.03;3478838;28;20047;-71
2021/06/14 04:43:18;;;;;;;3.47;2.87;;;;;;;23.52;54.41;99418.84;3471265;28;20041;-71
2021/06/14 04:44:59;;;;;;;6.00;3.07;;;;;;;23.57;54.20;99419.88;3481093;28;20128;-71
2021/06/14 04:46:40;;;;;;;8.20;3.53;;;;;;;23.59;54.19;99420.41;3467696;28;20045;-72
2021/06/14 04:48:21;;;;;;;4.30;2.60;;;;;;;23.62;54.27;99422.56;3467870;28;20053;-71
2021/06/14 04:50:04;;;;;;;4.50;3.40;;;;;;;23.66;54.28;99420.91;3468302;28;20052;-72
2021/06/14 04:51:45;;;;;;;3.20;2.85;;;;;;;23.68;54.11;99416.78;3467501;28;20123;-72
2021/06/14 04:53:25;;;;;;;9.23;4.00;;;;;;;23.75;53.84;99421.94;3468410;28;20479;-71
2021/06/14 04:55:07;;;;;;;6.37;3.57;;;;;;;23.78;53.64;99421.34;3467820;28;20061;-72
2021/06/14 04:56:47;;;;;;;6.10;3.40;;;;;;;23.83;53.73;99424.03;3476656;28;20041;-71
2021/06/14 04:58:28;;;;;;;5.93;2.93;;;;;;;23.90;53.85;99421.75;3468407;28;20129;-71
2021/06/14 05:00:09;;;;;;;3.50;3.20;;;;;;;23.97;53.41;99423.31;3468481;28;20045;-71
2021/06/14 05:01:50;;;;;;;9.02;3.33;;;;;;;24.08;53.38;99430.25;3468193;28;20490;-71
2021/06/14 05:03:31;;;;;;;6.33;3.57;;;;;;;24.15;53.50;99430.72;3478770;28;20045;-72
2021/06/14 05:05:12;;;;;;;3.53;3.23;;;;;;;24.24;53.24;99434.44;3482609;28;20045;-72
2021/06/14 05:06:53;;;;;;;4.50;3.35;;;;;;;24.31;53.31;99436.78;3482175;28;20500;-71
2021/06/14 05:08:34;;;;;;;5.65;3.30;;;;;;;24.36;52.88;99442.19;3481916;28;20056;-71
2021/06/14 05:10:15;;;;;;;8.13;3.13;;;;;;;24.37;53.04;99439.19;3484400;28;20393;-71
2021/06/14 05:11:56;;;;;;;7.43;5.30;;;;;;;24.40;52.73;99435.06;3478888;28;20044;-70
2021/06/14 05:13:36;;;;;;;9.97;7.37;;;;;;;24.48;52.47;99447.25;3471300;28;20107;-70
2021/06/14 05:15:17;;;;;;;5.43;4.23;;;;;;;24.55;52.55;99439.50;3470980;28;20416;-72
2021/06/14 05:16:58;;;;;;;6.80;4.20;;;;;;;24.64;52.54;99439.66;3470093;28;20044;-72
2021/06/14 05:18:39;;;;;;;10.70;3.80;;;;;;;24.72;52.33;99439.81;3470715;28;20037;-72
2021/06/14 05:20:19;;;;;;;5.97;3.70;;;;;;;24.78;52.08;99449.56;3476708;28;20040;-71
2021/06/14 05:22:01;;;;;;;4.47;3.70;;;;;;;24.79;52.30;99445.72;3484023;28;20076;-71
2021/06/14 05:23:42;;;;;;;5.18;2.75;;;;;;;24.85;52.00;99446.44;3482812;28;20171;-71
2021/06/14 05:25:23;;;;;;;3.13;2.77;;;;;;;24.91;51.89;99447.19;3484655;28;20045;-70
2021/06/14 05:27:04;;;;;;;4.67;3.30;;;;;;;24.98;51.63;99451.16;3482987;28;20508;-71
2021/06/14 05:28:44;;;;;;;3.58;2.67;;;;;;;25.04;51.60;99446.41;3484835;28;20047;-70
2021/06/14 05:30:26;;;;;;;3.87;2.80;;;;;;;25.11;51.31;99448.78;3497584;28;20044;-71
2021/06/14 05:32:07;;;;;;;6.88;2.85;;;;;;;25.17;51.72;99445.72;3483538;28;20134;-70
2021/06/14 05:33:48;;;;;;;5.95;2.92;;;;;;;25.24;51.64;99448.06;3479532;28;20128;-71
2021/06/14 05:35:29;;;;;;;4.80;2.90;;;;;;;25.30;51.19;99448.78;3484525;28;20036;-71
2021/06/14 05:37:21;;;;;;;4.07;2.88;;;;;;;25.35;50.94;99451.41;3554817;27;118970;-71
2021/06/14 05:39:03;;;;;;;3.80;3.40;;;;;;;25.40;51.02;99454.06;3550421;27;20039;-73
2021/06/14 05:40:43;;;;;;;4.25;2.97;;;;;;;25.46;50.73;99450.16;3550854;27;20045;-72
2021/06/14 05:42:24;;;;;;;4.80;3.17;;;;;;;25.48;50.57;99445.22;3550475;27;20039;-72
2021/06/14 05:44:05;;;;;;;5.10;3.17;;;;;;;25.55;50.74;99450.28;3547651;27;20527;-73
2021/06/14 05:45:46;;;;;;;4.35;3.20;;;;;;;25.57;50.73;99443.41;3547100;27;20184;-71
2021/06/14 05:47:27;;;;;;;5.67;3.00;;;;;;;25.63;50.66;99450.38;3550619;27;20526;-72
2021/06/14 05:49:07;;;;;;;5.70;2.93;;;;;;;25.70;50.28;99457.38;3550545;27;20038;-71
2021/06/14 05:50:48;;;;;;;8.00;3.27;;;;;;;25.77;50.26;99453.16;3549592;27;20046;-71
2021/06/14 05:52:30;;;;;;;3.47;2.80;;;;;;;25.83;50.39;99456.59;3550152;27;20473;-72
2021/06/14 05:54:10;;;;;;;6.32;2.85;;;;;;;25.88;50.43;99456.53;3542988;27;20036;-71
2021/06/14 05:55:51;;;;;;;6.83;3.77;;;;;;;25.94;50.16;99458.03;3536162;27;20090;-71
2021/06/14 05:57:32;;;;;;;5.63;3.13;;;;;;;26.01;49.74;99460.38;3546515;27;20046;-71
2021/06/14 05:59:13;;;;;;;3.53;3.07;;;;;;;26.03;49.71;99464.44;3549571;27;20125;-71
2021/06/14 06:00:54;;;;;;;8.17;3.03;;;;;;;26.00;49.82;99466.97;3550175;27;20171;-72
2021/06/14 06:02:34;;;;;;;10.57;8.87;;;;;;;25.97;49.84;99468.38;3549454;27;20050;-71
2021/06/14 06:04:17;;;;;;;14.73;7.63;;;;;;;26.01;49.56;99476.78;3549379;27;20035;-71
2021/06/14 06:05:57;;;;;;;6.43;4.75;;;;;;;26.02;49.33;99471.03;3536566;27;20036;-71
2021/06/14 06:07:38;;;;;;;6.40;3.97;;;;;;;26.06;49.20;99477.47;3535070;28;20530;-74
2021/06/14 06:09:19;;;;;;;9.33;3.37;;;;;;;26.08;48.83;99482.66;3535904;28;20043;-72
2021/06/14 06:11:00;;;;;;;5.63;3.67;;;;;;;26.10;48.69;99477.69;3536006;27;20035;-71
2021/06/14 06:12:40;;;;;;;7.03;3.33;;;;;;;26.12;48.70;99472.72;3545842;27;20396;-71
2021/06/14 06:14:22;;;;;;;7.33;3.47;;;;;;;26.16;49.23;99481.13;3535071;28;20088;-71
2021/06/14 06:16:04;;;;;;;4.70;3.95;;;;;;;26.23;48.75;99470.59;3544290;27;20426;-73
2021/06/14 06:17:45;;;;;;;5.53;2.95;;;;;;;26.24;48.60;99472.22;3549351;27;20035;-70
2021/06/14 06:19:25;;;;;;;4.95;4.00;;;;;;;26.32;48.37;99482.44;3549069;27;20101;-72
2021/06/14 06:21:06;;;;;;;8.47;3.80;;;;;;;26.36;48.85;99482.63;3549267;27;20081;-71
2021/06/14 06:22:47;;;;;;;11.20;3.70;;;;;;;26.37;48.56;99476.88;3549797;27;20490;-73
2021/06/14 06:24:28;;;;;;;6.72;4.50;;;;;;;26.43;48.32;99489.31;3534974;28;20130;-71
2021/06/14 06:26:09;;;;;;;5.87;3.50;;;;;;;26.47;48.38;99484.06;3546881;27;20091;-71
2021/06/14 06:27:50;;;;;;;9.17;4.13;;;;;;;26.49;48.01;99477.19;3549438;27;20130;-71
2021/06/14 06:29:31;;;;;;;26.55;4.43;;;;;;;26.61;48.11;99495.00;3535428;28;20046;-72
2021/06/14 06:31:11;;;;;;;6.07;3.63;;;;;;;26.66;47.92;99490.22;3545803;27;20062;-73
2021/06/14 06:32:52;;;;;;;4.90;3.50;;;;;;;26.77;48.03;99490.84;3550120;27;20047;-72
2021/06/14 06:34:33;;;;;;;8.50;4.07;;;;;;;26.88;48.17;99492.22;3548597;27;20099;-72
2021/06/14 06:36:14;;;;;;;4.80;3.43;;;;;;;27.01;47.87;99489.75;3545643;27;20525;-71
2021/06/14 06:37:54;;;;;;;5.23;2.97;;;;;;;27.13;47.61;99492.75;3547641;27;20031;-70
2021/06/14 06:39:35;;;;;;;5.93;3.43;;;;;;;27.22;47.55;99490.94;3534730;27;20047;-71
2021/06/14 06:41:16;;;;;;;5.07;3.87;;;;;;;27.38;47.12;99499.56;3537262;27;20036;-71
2021/06/14 06:42:57;;;;;;;5.80;3.50;;;;;;;27.49;47.00;99495.44;3547692;27;20162;-72
2021/06/14 06:44:38;;;;;;;3.65;3.17;;;;;;;27.60;46.43;99498.78;3545069;27;20195;-72
2021/06/14 06:46:19;;;;;;;7.15;3.60;;;;;;;27.69;46.66;99499.59;3549116;27;20066;-73
2021/06/14 06:48:01;;;;;;;5.37;3.20;;;;;;;27.79;46.45;99504.03;3544257;27;20100;-72
2021/06/14 06:49:42;;;;;;;6.95;4.07;;;;;;;27.88;46.60;99501.34;3527769;27;20070;-73
2021/06/14 06:51:23;;;;;;;4.67;2.83;;;;;;;27.97;45.94;99511.25;3537066;27;20039;-73
2021/06/14 06:53:04;;;;;;;3.17;2.60;;;;;;;28.07;45.62;99509.34;3539824;27;20039;-74
2021/06/14 06:54:45;;;;;;;5.07;3.17;;;;;;;28.17;45.25;99509.88;3540175;27;20043;-72
2021/06/14 06:56:25;;;;;;;4.50;3.63;;;;;;;28.24;45.41;99499.28;3539881;27;20043;-72
2021/06/14 06:58:06;;;;;;;6.00;3.70;;;;;;;28.36;45.55;99511.56;3539709;27;20099;-72
2021/06/14 06:59:47;;;;;;;5.57;3.30;;;;;;;28.46;45.18;99501.13;3538253;27;20050;-72
2021/06/14 07:01:28;;;;;;;4.50;3.07;;;;;;;28.54;44.55;99505.03;3539261;27;20813;-71
2021/06/14 07:03:09;;;;;;;8.77;3.10;;;;;;;28.58;44.56;99503.28;3538943;27;20047;-72
2021/06/14 07:04:50;;;;;;;4.78;3.15;;;;;;;28.65;44.72;99511.03;3539934;27;20031;-71
2021/06/14 07:06:31;;;;;;;6.07;3.03;;;;;;;28.72;44.59;99508.63;3538964;27;20545;-71
2021/06/14 07:08:11;;;;;;;5.10;2.92;;;;;;;28.81;44.08;99514.94;3528824;27;20375;-72
2021/06/14 07:09:52;;;;;;;3.50;2.90;;;;;;;28.87;44.44;99518.34;3527694;27;20031;-73
2021/06/14 07:11:33;;;;;;;3.57;3.27;;;;;;;28.95;44.10;99517.53;3527310;27;20035;-71
2021/06/14 07:13:16;;;;;;;3.30;3.03;;;;;;;29.01;44.02;99518.19;3540093;27;20498;-74
2021/06/14 07:14:57;;;;;;;5.85;2.85;;;;;;;29.04;43.85;99518.34;3539953;27;20039;-71
2021/06/14 07:16:39;;;;;;;3.33;2.60;;;;;;;29.06;43.72;99518.84;3539892;27;20096;-72
2021/06/14 07:18:20;;;;;;;5.60;2.95;;;;;;;29.07;43.60;99520.47;3540004;27;20043;-73
2021/06/14 07:20:00;;;;;;;4.53;3.17;;;;;;;29.16;43.15;99516.94;3539892;27;20063;-73
2021/06/14 07:21:41;;;;;;;3.80;2.67;;;;;;;29.21;43.02;99517.56;3538392;27;20039;-72
2021/06/14 07:23:22;;;;;;;5.07;2.90;;;;;;;29.28;42.95;99512.41;3539904;27;20031;-72
2021/06/14 07:25:05;;;;;;;7.97;2.97;;;;;;;29.35;42.59;99520.13;3538503;27;20115;-72
2021/06/14 07:26:45;;;;;;;6.03;2.92;;;;;;;29.43;41.86;99519.34;3535742;27;20143;-71
2021/06/14 07:28:26;;;;;;;7.00;2.40;;;;;;;29.53;42.49;99512.69;3538354;27;20490;-71
2021/06/14 07:30:10;;;;;;;6.93;3.13;;;;;;;29.60;41.96;99521.25;3525446;27;20043;-71
2021/06/14 07:31:50;;;;;;;4.97;2.92;;;;;;;29.67;42.25;99520.78;3538055;27;20114;-73
2021/06/14 07:33:33;;;;;;;5.00;2.67;;;;;;;29.69;41.97;99522.09;3526402;27;20040;-71
2021/06/14 07:35:14;;;;;;;5.20;2.75;;;;;;;29.75;41.41;99522.72;3538643;27;20043;-72
2021/06/14 07:36:57;;;;;;;4.30;2.58;;;;;;;29.78;41.23;99522.06;3538694;27;20055;-72
2021/06/14 07:38:38;;;;;;;3.53;2.58;;;;;;;29.80;41.13;99527.22;3538604;27;20043;-71
2021/06/14 07:40:19;;;;;;;6.57;2.78;;;;;;;29.81;40.97;99521.41;3538239;27;20045;-73
2021/06/14 07:42:00;;;;;;;6.75;2.40;;;;;;;29.88;40.50;99527.19;3538481;27;20067;-72
2021/06/14 07:43:41;;;;;;;3.77;2.20;;;;;;;29.97;40.77;99519.75;3538872;27;20038;-71
2021/06/14 07:45:24;;;;;;;7.32;2.92;;;;;;;30.10;40.41;99517.09;3538471;27;20046;-72
2021/06/14 07:47:04;;;;;;;5.82;2.58;;;;;;;30.24;40.64;99516.94;3538017;27;20047;-72
2021/06/14 07:48:45;;;;;;;3.40;3.07;;;;;;;30.38;40.38;99523.78;3536917;27;20049;-74
2021/06/14 07:50:26;;;;;;;11.30;3.20;;;;;;;30.53;40.53;99524.38;3537371;27;20073;-71
2021/06/14 07:52:07;;;;;;;4.45;2.55;;;;;;;30.61;39.94;99523.53;3529973;27;20167;-70
2021/06/14 07:53:51;;;;;;;4.03;2.85;;;;;;;30.60;40.13;99524.66;3530637;27;20038;-70
2021/06/14 07:55:32;;;;;;;3.92;2.50;;;;;;;30.64;39.66;99525.59;3539251;27;20454;-71
2021/06/14 07:57:13;;;;;;;;;;;;;;;30.78;39.89;99531.69;3539196;27;20035;-72
2021/06/14 07:58:54;;;;;;;7.05;2.20;;;;;;;30.88;39.52;99522.25;3537664;27;19942;-70
2021/06/14 08:00:35;;;;;;;6.45;2.92;;;;;;;30.99;39.32;99522.66;3537551;27;20112;-71
2021/06/14 08:02:16;;;;;;;;;;;;;;;31.13;39.49;99525.94;3540004;27;20535;-71
2021/06/14 08:03:58;;;;;;;4.20;2.75;;;;;;;31.17;39.05;99537.09;3535578;27;19920;-71